createdAt,value
2022-11-27T00:00:00.694Z,1.63
2022-11-27T00:03:02.691Z,1.63
2022-11-27T00:06:22.037Z,1.61
2022-11-27T00:09:25.295Z,1.58
2022-11-27T00:12:27.048Z,1.56
2022-11-27T00:15:28.748Z,1.54
2022-11-27T00:18:30.529Z,1.51
2022-11-27T00:21:34.376Z,1.50
2022-11-27T00:24:36.048Z,1.50
2022-11-27T00:27:37.785Z,1.49
2022-11-27T00:30:39.745Z,1.49
2022-11-27T00:33:41.567Z,1.50
2022-11-27T00:36:47.840Z,1.52
2022-11-27T00:39:50.017Z,1.53
2022-11-27T00:42:51.724Z,1.50
2022-11-27T00:45:53.464Z,1.46
2022-11-27T00:48:55.156Z,1.44
2022-11-27T00:51:56.978Z,1.45
2022-11-27T00:54:58.941Z,1.45
2022-11-27T00:58:00.625Z,1.46
2022-11-27T01:01:05.882Z,1.47
2022-11-27T01:04:11.367Z,1.47
2022-11-27T01:07:13.088Z,1.47
2022-11-27T01:10:14.904Z,1.49
2022-11-27T01:13:16.864Z,1.47
2022-11-27T01:16:21.365Z,1.43
2022-11-27T01:19:23.333Z,1.42
2022-11-27T01:22:25.060Z,1.43
2022-11-27T01:25:27.264Z,1.43
2022-11-27T01:28:29.054Z,1.43
2022-11-27T01:31:31.320Z,1.40
2022-11-27T01:34:33.103Z,1.38
2022-11-27T01:37:34.754Z,1.38
2022-11-27T01:40:37.067Z,1.41
2022-11-27T01:43:43.360Z,1.44
2022-11-27T01:46:47.294Z,1.45
2022-11-27T01:49:54.079Z,1.46
2022-11-27T01:53:03.724Z,1.47
2022-11-27T01:56:05.904Z,1.46
2022-11-27T01:59:07.711Z,1.45
2022-11-27T02:02:09.412Z,1.42
2022-11-27T02:05:17.329Z,1.40
2022-11-27T02:08:19.085Z,1.38
2022-11-27T02:11:24.785Z,1.37
2022-11-27T02:14:40.104Z,1.35
2022-11-27T02:18:13.272Z,1.33
2022-11-27T02:21:37.653Z,1.33
2022-11-27T02:25:03.245Z,1.32
2022-11-27T02:28:17.277Z,1.28
2022-11-27T02:31:24.400Z,1.27
2022-11-27T02:34:46.346Z,1.27
2022-11-27T02:37:54.173Z,1.28
2022-11-27T02:41:04.234Z,1.29
2022-11-27T02:44:06.732Z,1.29
2022-11-27T02:47:08.567Z,1.28
2022-11-27T02:50:14.393Z,1.29
2022-11-27T02:53:31.481Z,1.30
2022-11-27T02:56:34.682Z,1.32
2022-11-27T02:59:37.269Z,1.34
2022-11-27T03:02:55.318Z,1.34
2022-11-27T03:06:00.869Z,1.32
2022-11-27T03:09:36.095Z,1.33
2022-11-27T03:12:37.844Z,1.35
2022-11-27T03:15:40.414Z,1.35
2022-11-27T03:19:21.839Z,1.34
2022-11-27T03:22:23.920Z,1.33
2022-11-27T03:25:25.643Z,1.32
2022-11-27T03:28:27.190Z,1.31
2022-11-27T03:31:29.370Z,1.29
2022-11-27T03:34:31.832Z,1.25
2022-11-27T03:37:34.603Z,1.20
2022-11-27T03:40:46.276Z,1.15
2022-11-27T03:44:22.469Z,1.11
2022-11-27T03:48:08.472Z,1.07
2022-11-27T03:51:26.615Z,1.05
2022-11-27T03:54:51.784Z,1.07
2022-11-27T03:58:03.553Z,1.10
2022-11-27T04:01:09.196Z,1.13
2022-11-27T04:04:10.854Z,1.15
2022-11-27T04:07:16.255Z,1.15
2022-11-27T04:10:18.001Z,1.15
2022-11-27T04:13:19.665Z,1.08
2022-11-27T04:16:21.722Z,1.01
2022-11-27T04:19:23.521Z,0.97
2022-11-27T04:22:25.276Z,0.94
2022-11-27T04:25:27.362Z,0.91
2022-11-27T04:28:29.128Z,0.89
2022-11-27T04:31:30.841Z,0.86
2022-11-27T04:34:33.047Z,0.83
2022-11-27T04:37:35.056Z,0.80
2022-11-27T04:40:36.758Z,0.81
2022-11-27T04:43:38.525Z,0.79
2022-11-27T04:46:40.360Z,0.76
2022-11-27T04:49:42.233Z,0.74
2022-11-27T04:52:43.929Z,0.75
2022-11-27T04:55:45.506Z,0.74
2022-11-27T04:58:47.361Z,0.74
2022-11-27T05:01:49.185Z,0.72
2022-11-27T05:04:50.891Z,0.71
2022-11-27T05:07:52.697Z,0.65
2022-11-27T05:11:06.677Z,0.44
2022-11-27T05:14:22.905Z,0.06
2022-11-27T05:17:24.622Z,-0.03
2022-11-27T05:20:26.165Z,-0.05
2022-11-27T05:23:28.636Z,-0.10
2022-11-27T05:26:30.457Z,-0.16
2022-11-27T05:29:32.280Z,-0.10
2022-11-27T05:32:33.780Z,-0.01
2022-11-27T05:35:35.372Z,-0.09
2022-11-27T05:38:37.277Z,-0.20
2022-11-27T05:41:40.873Z,-0.16
2022-11-27T05:44:42.891Z,0.04
2022-11-27T05:47:44.658Z,0.17
2022-11-27T05:50:46.565Z,0.27
2022-11-27T05:53:49.690Z,0.36
2022-11-27T05:56:52.040Z,0.43
2022-11-27T05:59:53.972Z,0.52
2022-11-27T06:02:56.618Z,0.58
2022-11-27T06:05:58.616Z,0.62
2022-11-27T06:09:00.609Z,0.66
2022-11-27T06:12:02.407Z,0.71
2022-11-27T06:15:04.441Z,0.75
2022-11-27T06:18:06.386Z,0.77
2022-11-27T06:21:09.470Z,0.77
2022-11-27T06:24:11.081Z,0.79
2022-11-27T06:27:12.761Z,0.80
2022-11-27T06:30:14.453Z,0.80
2022-11-27T06:33:16.195Z,0.83
2022-11-27T06:36:19.143Z,0.84
2022-11-27T06:39:20.972Z,0.84
2022-11-27T06:42:22.587Z,0.86
2022-11-27T06:45:24.440Z,0.88
2022-11-27T06:48:25.999Z,0.90
2022-11-27T06:51:30.089Z,0.91
2022-11-27T06:54:31.853Z,0.92
2022-11-27T06:57:33.385Z,0.92
2022-11-27T07:00:35.193Z,0.91
2022-11-27T07:03:36.977Z,0.93
2022-11-27T07:06:38.821Z,0.97
2022-11-27T07:09:40.582Z,0.99
2022-11-27T07:12:42.525Z,1.01
2022-11-27T07:15:44.696Z,1.05
2022-11-27T07:18:49.104Z,1.09
2022-11-27T07:21:50.949Z,1.14
2022-11-27T07:24:52.588Z,1.24
2022-11-27T07:27:55.831Z,1.37
2022-11-27T07:30:58.914Z,1.48
2022-11-27T07:34:00.870Z,1.56
2022-11-27T07:37:02.572Z,1.61
2022-11-27T07:40:04.876Z,1.70
2022-11-27T07:43:06.606Z,1.86
2022-11-27T07:46:09.204Z,2.02
2022-11-27T07:49:11.041Z,2.13
2022-11-27T07:52:12.556Z,2.22
2022-11-27T07:55:14.404Z,2.31
2022-11-27T07:58:16.150Z,2.42
2022-11-27T08:01:18.623Z,2.54
2022-11-27T08:04:20.813Z,2.64
2022-11-27T08:07:28.740Z,2.72
2022-11-27T08:10:37.815Z,2.80
2022-11-27T08:13:39.674Z,2.88
2022-11-27T08:16:41.491Z,2.93
2022-11-27T08:19:43.293Z,2.96
2022-11-27T08:22:44.833Z,2.98
2022-11-27T08:25:46.469Z,3.00
2022-11-27T08:28:48.120Z,3.03
2022-11-27T08:31:49.687Z,3.01
2022-11-27T08:34:51.370Z,3.01
2022-11-27T08:37:53.258Z,2.97
2022-11-27T08:40:59.687Z,2.94
2022-11-27T08:44:03.516Z,2.90
2022-11-27T08:47:07.306Z,2.89
2022-11-27T08:50:09.387Z,2.90
2022-11-27T08:53:11.432Z,2.91
2022-11-27T08:56:19.142Z,2.91
2022-11-27T08:59:20.791Z,2.95
2022-11-27T09:02:22.486Z,2.97
2022-11-27T09:05:24.585Z,3.05
2022-11-27T09:08:26.172Z,3.03
2022-11-27T09:11:28.457Z,3.04
2022-11-27T09:14:30.073Z,3.05
2022-11-27T09:17:32.224Z,3.01
2022-11-27T09:20:33.957Z,2.96
2022-11-27T09:23:35.703Z,2.99
2022-11-27T09:26:37.365Z,3.01
2022-11-27T09:29:39.503Z,3.04
2022-11-27T09:32:41.335Z,3.09
2022-11-27T09:35:43.032Z,3.12
2022-11-27T09:38:45.103Z,3.13
2022-11-27T09:41:50.546Z,3.17
2022-11-27T09:44:57.520Z,3.22
2022-11-27T09:48:05.711Z,3.26
2022-11-27T09:51:19.222Z,3.31
2022-11-27T09:54:28.546Z,3.33
2022-11-27T09:57:37.265Z,3.34
2022-11-27T10:00:39.001Z,3.36
2022-11-27T10:03:42.822Z,3.41
2022-11-27T10:06:50.715Z,3.44
2022-11-27T10:10:02.490Z,3.47
2022-11-27T10:13:16.417Z,3.47
2022-11-27T10:16:44.560Z,3.44
2022-11-27T10:19:58.543Z,3.46
2022-11-27T10:23:21.117Z,3.49
2022-11-27T10:26:32.278Z,3.52
2022-11-27T10:29:47.116Z,3.53
2022-11-27T10:32:55.964Z,3.54
2022-11-27T10:35:58.886Z,3.52
2022-11-27T10:39:01.624Z,3.51
2022-11-27T10:42:10.332Z,3.52
2022-11-27T10:45:22.909Z,3.63
2022-11-27T10:48:24.947Z,3.73
2022-11-27T10:51:33.689Z,3.80
2022-11-27T10:54:37.979Z,3.82
2022-11-27T10:58:04.234Z,3.84
2022-11-27T11:01:08.982Z,3.87
2022-11-27T11:04:37.010Z,3.93
2022-11-27T11:07:34.882Z,3.97
2022-11-27T11:10:56.669Z,3.99
2022-11-27T11:13:58.756Z,3.97
2022-11-27T11:17:00.817Z,3.98
2022-11-27T11:20:15.140Z,3.95
2022-11-27T11:23:43.284Z,3.91
2022-11-27T11:26:48.260Z,3.94
2022-11-27T11:29:51.696Z,4.01
2022-11-27T11:33:00.267Z,4.05
2022-11-27T11:36:09.712Z,4.09
2022-11-27T11:39:23.212Z,4.14
2022-11-27T11:42:33.784Z,4.19
2022-11-27T11:45:45.383Z,4.20
2022-11-27T11:48:59.387Z,4.23
2022-11-27T11:52:22.402Z,4.20
2022-11-27T11:55:31.653Z,4.19
2022-11-27T11:58:57.274Z,4.14
2022-11-27T12:02:20.662Z,4.14
2022-11-27T12:05:39.857Z,4.20
2022-11-27T12:09:03.424Z,4.20
2022-11-27T12:12:23.671Z,4.18
2022-11-27T12:15:36.475Z,4.15
2022-11-27T12:18:55.384Z,4.15
2022-11-27T12:22:12.340Z,4.11
2022-11-27T12:25:32.764Z,4.11
2022-11-27T12:28:47.010Z,3.98
2022-11-27T12:32:10.536Z,3.82
2022-11-27T12:35:32.373Z,3.76
2022-11-27T12:38:51.689Z,3.82
2022-11-27T12:42:09.461Z,3.86
2022-11-27T12:45:35.580Z,3.86
2022-11-27T12:48:41.487Z,3.65
2022-11-27T12:51:48.466Z,3.26
2022-11-27T12:54:57.702Z,2.90
2022-11-27T12:58:04.462Z,2.65
2022-11-27T13:01:10.433Z,2.63
2022-11-27T13:04:18.895Z,2.80
2022-11-27T13:07:25.617Z,2.96
2022-11-27T13:10:32.932Z,3.08
2022-11-27T13:13:39.557Z,3.16
2022-11-27T13:16:46.619Z,3.21
2022-11-27T13:19:50.264Z,3.29
2022-11-27T13:22:52.213Z,3.32
2022-11-27T13:48:01.303Z,15.27
2022-11-27T13:51:03.900Z,9.88
2022-11-27T13:54:14.694Z,6.94
2022-11-27T13:57:18.271Z,5.12
2022-11-27T14:00:48.949Z,4.13
2022-11-27T14:03:51.151Z,3.56
2022-11-27T14:07:00.151Z,3.35
2022-11-27T14:10:09.388Z,3.21
2022-11-27T14:13:11.270Z,3.12
2022-11-27T14:16:29.278Z,3.02
2022-11-27T14:19:41.509Z,2.88
2022-11-27T14:23:09.903Z,2.83
2022-11-27T14:26:15.814Z,2.74
2022-11-27T14:29:20.793Z,2.62
2022-11-27T14:32:22.424Z,2.54
2022-11-27T14:35:26.308Z,2.47
2022-11-27T14:38:29.623Z,2.45
2022-11-27T14:41:31.972Z,2.42
2022-11-27T14:44:34.296Z,2.40
2022-11-27T14:47:36.654Z,2.39
2022-11-27T14:50:38.631Z,2.41
2022-11-27T14:53:40.621Z,2.37
2022-11-27T14:56:43.797Z,2.32
2022-11-27T14:59:45.652Z,2.34
2022-11-27T15:02:51.294Z,2.34
2022-11-27T15:06:02.184Z,2.33
2022-11-27T15:09:30.386Z,2.28
2022-11-27T15:12:31.433Z,2.20
2022-11-27T15:15:39.954Z,2.24
2022-11-27T15:18:42.497Z,2.30
2022-11-27T15:21:49.046Z,2.29
2022-11-27T15:25:02.146Z,2.02
2022-11-27T15:28:24.948Z,1.90
2022-11-27T15:31:37.777Z,1.75
2022-11-27T15:34:40.539Z,1.64
2022-11-27T15:37:42.863Z,1.67
2022-11-27T15:40:44.512Z,1.67
2022-11-27T15:43:46.301Z,1.63
2022-11-27T15:46:47.879Z,1.61
2022-11-27T15:49:50.149Z,1.59
2022-11-27T15:52:51.989Z,1.58
2022-11-27T15:55:53.664Z,1.55
2022-11-27T15:58:55.354Z,1.56
2022-11-27T16:01:58.076Z,1.60
2022-11-27T16:04:59.920Z,1.59
2022-11-27T16:08:01.462Z,1.57
2022-11-27T16:11:06.166Z,1.61
2022-11-27T16:14:07.762Z,1.71
2022-11-27T16:17:09.471Z,1.78
2022-11-27T16:20:11.431Z,1.80
2022-11-27T16:23:13.027Z,1.75
2022-11-27T16:26:14.841Z,1.71
2022-11-27T16:29:16.719Z,1.66
2022-11-27T16:32:18.701Z,1.63
2022-11-27T16:35:20.224Z,1.62
2022-11-27T16:38:22.160Z,1.60
2022-11-27T16:41:24.677Z,1.55
2022-11-27T16:44:26.587Z,1.54
2022-11-27T16:47:33.602Z,1.56
2022-11-27T16:50:36.191Z,1.58
2022-11-27T16:53:43.098Z,1.57
2022-11-27T16:56:44.917Z,1.58
2022-11-27T16:59:46.657Z,1.62
2022-11-27T17:02:48.399Z,1.67
2022-11-27T17:05:51.562Z,1.71
2022-11-27T17:08:54.658Z,1.66
2022-11-27T17:11:56.376Z,1.60
2022-11-27T17:14:58.502Z,1.57
2022-11-27T17:18:01.113Z,1.58
2022-11-27T17:21:06.178Z,1.60
2022-11-27T17:24:15.088Z,1.61
2022-11-27T17:27:18.530Z,1.61
2022-11-27T17:30:20.281Z,1.58
2022-11-27T17:33:22.437Z,1.57
2022-11-27T17:36:28.758Z,1.54
2022-11-27T17:39:33.207Z,1.52
2022-11-27T17:42:34.846Z,1.50
2022-11-27T17:45:40.954Z,1.47
2022-11-27T17:48:43.233Z,1.47
2022-11-27T17:51:45.137Z,1.47
2022-11-27T17:54:47.013Z,1.47
2022-11-27T17:57:48.849Z,1.46
2022-11-27T18:00:50.419Z,1.45
2022-11-27T18:03:55.146Z,1.42
2022-11-27T18:06:57.453Z,1.37
2022-11-27T18:09:59.251Z,1.32
2022-11-27T18:13:00.848Z,1.33
2022-11-27T18:16:11.393Z,1.36
2022-11-27T18:19:13.267Z,1.43
2022-11-27T18:22:16.346Z,1.48
2022-11-27T18:25:18.112Z,1.50
2022-11-27T18:28:19.690Z,1.51
2022-11-27T18:31:22.362Z,1.54
2022-11-27T18:34:24.226Z,1.51
2022-11-27T18:37:26.108Z,1.50
2022-11-27T18:40:28.099Z,1.47
2022-11-27T18:43:29.920Z,1.43
2022-11-27T18:46:31.763Z,1.37
2022-11-27T18:49:33.635Z,1.28
2022-11-27T18:52:35.233Z,1.23
2022-11-27T18:55:37.215Z,1.22
2022-11-27T18:58:39.788Z,1.22
2022-11-27T19:01:42.754Z,1.21
2022-11-27T19:04:45.331Z,1.14
2022-11-27T19:07:47.154Z,1.07
2022-11-27T19:10:48.879Z,1.04
2022-11-27T19:13:53.354Z,1.03
2022-11-27T19:16:55.232Z,1.03
2022-11-27T19:19:56.879Z,1.02
2022-11-27T19:22:58.625Z,1.03
2022-11-27T19:26:04.420Z,1.02
2022-11-27T19:29:08.604Z,1.00
2022-11-27T19:32:10.392Z,0.99
2022-11-27T19:35:12.099Z,1.00
2022-11-27T19:38:16.974Z,1.02
2022-11-27T19:41:18.833Z,1.05
2022-11-27T19:44:20.530Z,1.06
2022-11-27T19:47:22.143Z,1.05
2022-11-27T19:50:24.113Z,1.00
2022-11-27T19:53:26.761Z,0.96
2022-11-27T19:56:30.617Z,0.92
2022-11-27T19:59:32.444Z,0.89
2022-11-27T20:02:35.173Z,0.85
2022-11-27T20:05:37.014Z,0.83
2022-11-27T20:08:39.316Z,0.82
2022-11-27T20:11:41.194Z,0.84
2022-11-27T20:14:43.618Z,0.87
2022-11-27T20:17:45.520Z,0.89
2022-11-27T20:20:47.214Z,0.90
2022-11-27T20:23:51.032Z,0.91
2022-11-27T20:26:52.635Z,0.94
2022-11-27T20:29:55.596Z,0.94
2022-11-27T20:32:57.439Z,0.97
2022-11-27T20:35:59.479Z,0.97
2022-11-27T20:39:01.810Z,0.97
2022-11-27T20:42:03.612Z,0.99
2022-11-27T20:45:05.423Z,0.99
2022-11-27T20:48:08.957Z,0.99
2022-11-27T20:51:13.876Z,1.01
2022-11-27T20:54:15.609Z,1.03
2022-11-27T20:57:17.841Z,1.06
2022-11-27T21:00:20.204Z,1.10
2022-11-27T21:03:21.819Z,1.13
2022-11-27T21:06:26.402Z,1.19
2022-11-27T21:09:28.181Z,1.25
2022-11-27T21:12:29.771Z,1.28
2022-11-27T21:15:31.432Z,1.28
2022-11-27T21:18:33.108Z,1.21
2022-11-27T21:21:34.934Z,1.13
2022-11-27T21:24:36.782Z,1.09
2022-11-27T21:27:38.480Z,1.08
2022-11-27T21:30:40.173Z,1.07
2022-11-27T21:33:41.798Z,1.08
2022-11-27T21:36:43.624Z,1.08
2022-11-27T21:39:45.357Z,1.07
2022-11-27T21:42:46.931Z,1.08
2022-11-27T21:45:48.886Z,1.08
2022-11-27T21:48:51.972Z,1.13
2022-11-27T21:51:54.450Z,1.20
2022-11-27T21:54:56.275Z,1.30
2022-11-27T21:57:58.075Z,1.36
2022-11-27T22:01:01.402Z,1.38
2022-11-27T22:04:03.143Z,1.41
2022-11-27T22:07:09.448Z,1.43
2022-11-27T22:10:11.566Z,1.46
2022-11-27T22:13:13.217Z,1.47
2022-11-27T22:16:18.343Z,1.49
2022-11-27T22:19:20.152Z,1.51
2022-11-27T22:22:22.024Z,1.51
2022-11-27T22:25:23.779Z,1.53
2022-11-27T22:28:25.413Z,1.54
2022-11-27T22:31:35.337Z,1.54
2022-11-27T22:34:37.048Z,1.53
2022-11-27T22:37:38.625Z,1.52
2022-11-27T22:40:40.336Z,1.51
2022-11-27T22:43:42.242Z,1.50
2022-11-27T22:46:45.042Z,1.50
2022-11-27T22:49:46.666Z,1.50
2022-11-27T22:52:48.338Z,1.48
2022-11-27T22:55:49.916Z,1.44
2022-11-27T22:59:06.028Z,1.42
2022-11-27T23:02:13.382Z,1.43
2022-11-27T23:05:15.047Z,1.42
2022-11-27T23:08:19.029Z,1.39
2022-11-27T23:11:26.322Z,1.35
2022-11-27T23:14:28.126Z,1.35
2022-11-27T23:17:29.961Z,1.35
2022-11-27T23:20:31.836Z,1.35
2022-11-27T23:23:33.772Z,1.34
2022-11-27T23:26:35.507Z,1.35
2022-11-27T23:29:37.192Z,1.34
2022-11-27T23:32:39.460Z,1.33
2022-11-27T23:35:41.205Z,1.30
2022-11-27T23:38:42.828Z,1.27
2022-11-27T23:41:44.471Z,1.26
2022-11-27T23:44:46.241Z,1.27
2022-11-27T23:47:50.426Z,1.27
2022-11-27T23:50:52.113Z,1.27
2022-11-27T23:53:54.058Z,1.27
2022-11-27T23:56:56.286Z,1.27
2022-11-27T23:59:58.534Z,1.26
